Valois, New York
Current Conditions -  °F | °C
As of 7:53 PM on Wednesday 22 Oct 2014 (Local Time) from KPEO Reporting Station
Overcast Overcast  
Wind Chill: 45°   Ceiling: 1200
Heat Index: 48°   Visibility: 10mi
Dew Point: 43°   Wind: 7mph
Humidity: 83%   Direction: NA
Pressure: 30.15"   Gusts: NA
Location:  42.4947°N, 76.8774°W
Report Text: KPEO 222353Z AUTO VRB06KT 10SM OVC012 09/06 A3015 RMK AO2 SLP213 T00890061 10089 20083 55000
Loading
Personal Weather Stations






























Interactive Weather Map
Tropical Storm Tracking
New forecast layout! Learn more

10-Day Weather Forecast

Advertisements
Track Severe Weather on mobile